createdAt,value
2022-10-11T00:02:05.502Z,3.57
2022-10-11T00:04:47.203Z,3.58
2022-10-11T00:07:28.236Z,3.59
2022-10-11T00:10:08.768Z,3.50
2022-10-11T00:12:52.424Z,3.59
2022-10-11T00:15:33.444Z,3.51
2022-10-11T00:18:14.353Z,3.42
2022-10-11T00:21:02.157Z,3.29
2022-10-11T00:23:43.679Z,3.60
2022-10-11T00:26:25.735Z,3.52
2022-10-11T00:29:06.864Z,3.70
2022-10-11T00:31:46.019Z,3.51
2022-10-11T00:34:25.574Z,3.49
2022-10-11T00:37:05.154Z,3.63
2022-10-11T00:39:44.686Z,3.80
2022-10-11T00:42:24.588Z,3.58
2022-10-11T00:45:39.511Z,3.83
2022-10-11T00:48:23.609Z,3.80
2022-10-11T00:51:09.472Z,3.71
2022-10-11T00:53:49.513Z,3.53
2022-10-11T00:56:31.321Z,3.57
2022-10-11T00:59:14.201Z,3.48
2022-10-11T01:01:56.646Z,3.55
2022-10-11T01:04:38.777Z,3.48
2022-10-11T01:07:20.747Z,3.46
2022-10-11T01:10:02.471Z,3.53
2022-10-11T01:12:53.683Z,3.58
2022-10-11T01:15:37.811Z,3.50
2022-10-11T01:18:23.148Z,3.65
2022-10-11T01:21:11.269Z,3.56
2022-10-11T01:24:23.725Z,3.50
2022-10-11T01:27:34.403Z,3.51
2022-10-11T01:30:24.123Z,3.43
2022-10-11T01:33:15.703Z,3.38
2022-10-11T01:36:01.045Z,3.34
2022-10-11T01:38:45.968Z,3.31
2022-10-11T01:41:27.445Z,3.05
2022-10-11T01:44:06.973Z,3.24
2022-10-11T01:46:47.777Z,3.21
2022-10-11T01:49:28.793Z,3.16
2022-10-11T01:52:08.704Z,3.10
2022-10-11T01:55:10.633Z,3.11
2022-10-11T01:58:16.595Z,3.08
2022-10-11T02:01:12.634Z,3.07
2022-10-11T02:03:56.643Z,3.07
2022-10-11T02:06:42.744Z,2.89
2022-10-11T02:09:28.251Z,3.07
2022-10-11T02:12:13.235Z,3.12
2022-10-11T02:14:52.734Z,3.02
2022-10-11T02:17:37.530Z,3.04
2022-10-11T02:20:21.583Z,2.93
2022-10-11T02:23:03.091Z,2.87
2022-10-11T02:25:46.181Z,2.78
2022-10-11T02:28:28.414Z,2.71
2022-10-11T02:31:09.829Z,2.62
2022-10-11T02:33:55.282Z,2.60
2022-10-11T02:36:43.457Z,2.65
2022-10-11T02:39:28.734Z,2.21
2022-10-11T02:42:11.159Z,2.47
2022-10-11T02:45:01.740Z,2.68
2022-10-11T02:47:44.080Z,2.43
2022-10-11T02:50:25.998Z,2.70
2022-10-11T02:53:05.038Z,2.57
2022-10-11T02:55:46.732Z,2.63
2022-10-11T02:58:26.058Z,2.58
2022-10-11T03:01:07.696Z,2.57
2022-10-11T03:03:46.409Z,2.31
2022-10-11T03:06:26.011Z,2.43
2022-10-11T03:09:07.688Z,2.36
2022-10-11T03:11:48.670Z,2.12
2022-10-11T03:14:29.922Z,2.25
2022-10-11T03:17:34.486Z,2.18
2022-10-11T03:20:13.160Z,2.06
2022-10-11T03:22:53.983Z,1.94
2022-10-11T03:25:35.706Z,1.73
2022-10-11T03:28:16.270Z,1.82
2022-10-11T03:30:57.394Z,1.76
2022-10-11T03:33:38.586Z,1.74
2022-10-11T03:36:17.847Z,1.37
2022-10-11T03:38:57.234Z,1.74
2022-10-11T03:41:36.879Z,1.76
2022-10-11T03:44:16.330Z,1.59
2022-10-11T03:46:57.870Z,1.77
2022-10-11T03:49:43.464Z,1.82
2022-10-11T03:52:25.010Z,1.82
2022-10-11T03:55:07.371Z,1.82
2022-10-11T03:57:46.884Z,1.83
2022-10-11T04:00:26.460Z,1.81
2022-10-11T04:03:05.947Z,1.80
2022-10-11T04:05:45.423Z,1.35
2022-10-11T04:08:42.727Z,1.80
2022-10-11T04:11:24.136Z,0.89
2022-10-11T04:14:03.554Z,1.52
2022-10-11T04:16:44.816Z,1.68
2022-10-11T04:19:23.913Z,1.51
2022-10-11T04:22:05.879Z,1.65
2022-10-11T04:24:46.612Z,1.71
2022-10-11T04:27:28.644Z,1.74
2022-10-11T04:30:12.546Z,1.55
2022-10-11T04:32:53.241Z,1.63
2022-10-11T04:35:34.417Z,1.31
2022-10-11T04:38:13.518Z,1.37
2022-10-11T04:40:53.091Z,1.61
2022-10-11T04:43:32.577Z,1.72
2022-10-11T04:46:12.198Z,1.74
2022-10-11T04:48:54.012Z,1.43
2022-10-11T04:51:33.830Z,1.75
2022-10-11T04:54:16.226Z,1.68
2022-10-11T04:56:57.176Z,1.85
2022-10-11T04:59:38.266Z,1.94
2022-10-11T05:02:18.500Z,1.61
2022-10-11T05:05:00.671Z,1.97
2022-10-11T05:07:39.732Z,2.01
2022-10-11T05:10:19.403Z,2.03
2022-10-11T05:13:00.795Z,2.06
2022-10-11T05:15:39.925Z,1.91
2022-10-11T05:18:21.832Z,2.16
2022-10-11T05:21:05.450Z,2.05
2022-10-11T05:23:47.514Z,2.04
2022-10-11T05:26:28.754Z,2.13
2022-10-11T05:29:10.830Z,2.20
2022-10-11T05:31:52.019Z,2.45
2022-10-11T05:34:31.359Z,2.12
2022-10-11T05:37:12.729Z,2.42
2022-10-11T05:39:51.819Z,2.66
2022-10-11T05:42:31.355Z,2.50
2022-10-11T05:45:11.526Z,2.71
2022-10-11T05:47:52.418Z,2.83
2022-10-11T05:50:31.722Z,2.87
2022-10-11T05:53:13.217Z,2.89
2022-10-11T05:55:52.284Z,2.94
2022-10-11T05:58:33.777Z,2.98
2022-10-11T06:01:19.564Z,3.09
2022-10-11T06:04:00.896Z,3.07
2022-10-11T06:06:42.081Z,3.19
2022-10-11T06:09:21.144Z,3.24
2022-10-11T06:12:02.750Z,3.14
2022-10-11T06:14:43.998Z,3.35
2022-10-11T06:17:25.105Z,3.35
2022-10-11T06:20:07.017Z,3.05
2022-10-11T06:22:46.901Z,3.58
2022-10-11T06:25:28.473Z,3.71
2022-10-11T06:28:09.507Z,3.83
2022-10-11T06:30:48.709Z,3.80
2022-10-11T06:33:28.639Z,4.20
2022-10-11T06:36:10.691Z,4.30
2022-10-11T06:38:52.839Z,4.64
2022-10-11T06:41:33.678Z,4.79
2022-10-11T06:44:14.467Z,4.86
2022-10-11T06:46:55.928Z,5.08
2022-10-11T06:49:37.097Z,5.16
2022-10-11T06:52:18.216Z,5.19
2022-10-11T06:54:59.328Z,5.24
2022-10-11T06:57:38.482Z,5.48
2022-10-11T07:00:19.162Z,5.54
2022-10-11T07:03:01.201Z,5.61
2022-10-11T07:05:42.285Z,5.71
2022-10-11T07:08:23.456Z,5.80
2022-10-11T07:11:03.035Z,5.76
2022-10-11T07:13:44.342Z,5.83
2022-10-11T07:16:25.865Z,5.91
2022-10-11T07:19:08.258Z,5.83
2022-10-11T07:21:49.201Z,5.72
2022-10-11T07:24:30.477Z,6.08
2022-10-11T07:27:13.506Z,6.02
2022-10-11T07:29:54.350Z,6.24
2022-10-11T07:32:35.350Z,6.06
2022-10-11T07:35:16.616Z,6.38
2022-10-11T07:37:57.635Z,6.26
2022-10-11T07:40:44.276Z,6.39
2022-10-11T07:43:26.712Z,6.46
2022-10-11T07:46:06.133Z,6.32
2022-10-11T07:48:46.654Z,6.52
2022-10-11T07:51:26.627Z,6.41
2022-10-11T07:54:07.372Z,6.59
2022-10-11T07:56:48.770Z,6.62
2022-10-11T07:59:30.199Z,6.63
2022-10-11T08:02:13.119Z,6.59
2022-10-11T08:04:51.803Z,6.72
2022-10-11T08:07:33.423Z,6.70
2022-10-11T08:10:14.558Z,6.67
2022-10-11T08:12:57.011Z,6.83
2022-10-11T08:15:41.729Z,6.73
2022-10-11T08:18:20.812Z,6.84
2022-10-11T08:21:00.269Z,6.99
2022-10-11T08:23:41.861Z,7.04
2022-10-11T08:26:24.006Z,6.83
2022-10-11T08:29:05.756Z,6.68
2022-10-11T08:31:45.305Z,7.03
2022-10-11T08:34:26.462Z,6.89
2022-10-11T08:41:42.343Z,7.08
2022-10-11T08:47:42.585Z,7.13
2022-10-11T08:50:25.136Z,7.20
2022-10-11T08:53:08.216Z,7.41
2022-10-11T08:55:51.726Z,7.50
2022-10-11T08:58:23.712Z,7.53
2022-10-11T09:00:55.554Z,7.47
2022-10-11T09:03:30.154Z,7.42
2022-10-11T09:06:07.657Z,7.52
2022-10-11T09:08:47.326Z,7.02
2022-10-11T09:11:23.331Z,7.57
2022-10-11T09:14:08.701Z,7.64
2022-10-11T09:16:48.703Z,7.70
2022-10-11T09:19:38.422Z,7.69
2022-10-11T09:22:12.521Z,7.73
2022-10-11T09:24:54.276Z,7.74
2022-10-11T09:27:50.262Z,7.63
2022-10-11T09:30:18.354Z,7.82
2022-10-11T09:32:49.533Z,7.65
2022-10-11T09:35:19.970Z,7.92
2022-10-11T09:37:55.297Z,7.84
2022-10-11T09:40:38.970Z,8.07
2022-10-11T09:43:09.503Z,7.97
2022-10-11T09:45:38.892Z,7.58
2022-10-11T09:48:08.065Z,7.87
2022-10-11T09:50:37.346Z,8.15
2022-10-11T09:53:07.839Z,8.29
2022-10-11T09:55:38.905Z,8.35
2022-10-11T09:58:27.785Z,8.22
2022-10-11T10:01:06.719Z,8.33
2022-10-11T10:03:38.407Z,8.47
2022-10-11T10:06:12.137Z,8.37
2022-10-11T10:08:40.603Z,8.19
2022-10-11T10:11:09.784Z,8.34
2022-10-11T10:13:51.447Z,8.48
2022-10-11T10:16:22.494Z,8.53
2022-10-11T10:18:53.913Z,8.33
2022-10-11T10:21:28.579Z,8.55
2022-10-11T10:23:56.940Z,8.63
2022-10-11T10:26:26.609Z,8.62
2022-10-11T10:29:05.828Z,8.49
2022-10-11T10:31:55.414Z,8.67
2022-10-11T10:34:30.772Z,8.70
2022-10-11T10:37:02.953Z,8.81
2022-10-11T10:39:35.578Z,8.79
2022-10-11T10:42:05.720Z,8.51
2022-10-11T10:44:35.490Z,8.80
2022-10-11T10:47:08.026Z,8.73
2022-10-11T10:49:53.533Z,8.55
2022-10-11T10:52:44.260Z,8.86
2022-10-11T10:55:23.621Z,8.90
2022-10-11T10:58:05.312Z,8.97
2022-10-11T11:00:41.259Z,8.99
2022-10-11T11:03:16.324Z,9.02
2022-10-11T11:05:50.074Z,9.01
2022-10-11T11:08:31.435Z,9.02
2022-10-11T11:11:05.515Z,9.03
2022-10-11T11:13:39.147Z,9.09
2022-10-11T11:16:15.343Z,9.12
2022-10-11T11:18:49.737Z,8.98
2022-10-11T11:21:28.090Z,9.05
2022-10-11T11:24:03.675Z,8.88
2022-10-11T11:26:43.450Z,9.02
2022-10-11T11:29:24.674Z,9.12
2022-10-11T11:32:06.818Z,9.12
2022-10-11T11:34:38.939Z,9.12
2022-10-11T11:37:11.059Z,9.14
2022-10-11T11:39:43.552Z,9.12
2022-10-11T11:42:15.027Z,9.02
2022-10-11T11:44:46.027Z,9.12
2022-10-11T11:47:19.215Z,9.13
2022-10-11T11:49:50.475Z,9.14
2022-10-11T11:52:26.751Z,9.11
2022-10-11T11:55:03.957Z,9.22
2022-10-11T11:57:45.011Z,9.24
2022-10-11T12:00:17.537Z,9.30
2022-10-11T12:02:52.048Z,9.16
2022-10-11T12:05:22.858Z,9.14
2022-10-11T12:07:55.246Z,9.26
2022-10-11T12:10:30.941Z,9.17
2022-10-11T12:13:17.622Z,9.11
2022-10-11T12:16:02.488Z,9.28
2022-10-11T12:18:33.301Z,9.33
2022-10-11T12:21:07.862Z,9.14
2022-10-11T12:23:45.064Z,9.33
2022-10-11T12:26:36.389Z,9.27
2022-10-11T12:29:36.995Z,9.35
2022-10-11T12:32:51.252Z,9.35
2022-10-11T12:36:04.168Z,9.34
2022-10-11T12:38:39.877Z,9.27
2022-10-11T12:41:46.211Z,9.41
2022-10-11T12:44:23.484Z,9.05
2022-10-11T12:47:29.609Z,9.46
2022-10-11T12:50:07.459Z,9.04
2022-10-11T12:52:41.767Z,9.38
2022-10-11T12:55:35.409Z,9.22
2022-10-11T12:58:24.954Z,9.35
2022-10-11T13:01:16.871Z,9.34
2022-10-11T13:03:47.538Z,9.41
2022-10-11T13:06:18.981Z,9.42
2022-10-11T13:08:50.532Z,9.38
2022-10-11T13:11:22.976Z,9.39
2022-10-11T13:13:54.985Z,9.29
2022-10-11T13:16:25.724Z,9.35
2022-10-11T13:18:57.571Z,9.34
2022-10-11T13:21:31.121Z,9.35
2022-10-11T13:24:01.727Z,9.33
2022-10-11T13:26:33.244Z,9.39
2022-10-11T13:29:02.065Z,9.33
2022-10-11T13:31:30.667Z,9.37
2022-10-11T13:34:00.375Z,9.35
2022-10-11T13:36:29.132Z,9.32
2022-10-11T13:39:00.333Z,9.11
2022-10-11T13:41:30.344Z,9.35
2022-10-11T13:44:01.195Z,9.35
2022-10-11T13:46:31.263Z,9.30
2022-10-11T13:49:04.110Z,9.24
2022-10-11T13:51:34.975Z,9.34
2022-10-11T13:54:04.905Z,9.32
2022-10-11T13:56:36.232Z,9.21
2022-10-11T13:59:06.192Z,9.06
2022-10-11T14:01:40.389Z,9.18
2022-10-11T14:04:11.082Z,9.18
2022-10-11T14:06:42.316Z,9.10
2022-10-11T14:09:21.557Z,9.15
2022-10-11T14:11:50.540Z,9.19
2022-10-11T14:14:47.523Z,8.94
2022-10-11T14:17:18.304Z,9.15
2022-10-11T14:19:48.223Z,9.13
2022-10-11T14:22:18.129Z,8.94
2022-10-11T14:24:49.583Z,8.55
2022-10-11T14:27:20.545Z,8.88
2022-10-11T14:30:12.983Z,9.07
2022-10-11T14:32:39.954Z,8.95
2022-10-11T14:35:16.821Z,8.63
2022-10-11T14:37:45.343Z,8.99
2022-10-11T14:40:19.480Z,8.90
2022-10-11T14:42:47.942Z,8.83
2022-10-11T14:45:18.270Z,8.68
2022-10-11T14:47:46.668Z,8.58
2022-10-11T14:50:26.011Z,8.69
2022-10-11T14:52:54.524Z,8.61
2022-10-11T14:55:23.196Z,8.60
2022-10-11T14:57:52.025Z,8.65
2022-10-11T15:00:24.096Z,8.38
2022-10-11T15:02:54.380Z,8.35
2022-10-11T15:05:23.614Z,8.30
2022-10-11T15:07:52.249Z,8.31
2022-10-11T15:10:23.168Z,8.25
2022-10-11T15:12:52.540Z,7.93
2022-10-11T15:15:24.077Z,8.16
2022-10-11T15:17:55.321Z,8.05
2022-10-11T15:20:26.924Z,8.14
2022-10-11T15:22:55.801Z,7.94
2022-10-11T15:25:25.059Z,7.84
2022-10-11T15:27:53.927Z,7.91
2022-10-11T15:30:26.558Z,8.03
2022-10-11T15:32:55.253Z,7.97
2022-10-11T15:35:25.003Z,8.06
2022-10-11T15:37:54.936Z,8.04
2022-10-11T15:40:25.248Z,8.21
2022-10-11T15:42:55.020Z,8.10
2022-10-11T15:45:25.439Z,8.07
2022-10-11T15:47:54.130Z,7.96
2022-10-11T15:50:34.248Z,7.96
2022-10-11T15:53:03.800Z,8.03
2022-10-11T15:55:32.344Z,7.96
2022-10-11T15:58:01.354Z,7.78
2022-10-11T16:00:31.443Z,7.94
2022-10-11T16:03:00.384Z,7.80
2022-10-11T16:05:30.493Z,7.86
2022-10-11T16:07:58.890Z,7.97
2022-10-11T16:10:27.386Z,7.85
2022-10-11T16:12:56.136Z,7.96
2022-10-11T16:15:25.543Z,7.83
2022-10-11T16:17:55.399Z,7.51
2022-10-11T16:20:25.835Z,7.76
2022-10-11T16:22:55.664Z,7.68
2022-10-11T16:25:34.648Z,7.31
2022-10-11T16:28:03.464Z,7.71
2022-10-11T16:30:34.006Z,7.51
2022-10-11T16:33:03.744Z,7.61
2022-10-11T16:35:32.785Z,7.50
2022-10-11T16:38:01.918Z,7.64
2022-10-11T16:40:30.431Z,7.59
2022-10-11T16:42:58.816Z,7.54
2022-10-11T16:45:27.179Z,7.53
2022-10-11T16:47:55.601Z,7.47
2022-10-11T16:50:25.496Z,7.18
2022-10-11T16:52:55.135Z,7.12
2022-10-11T16:55:23.686Z,7.36
2022-10-11T16:57:52.025Z,7.29
2022-10-11T17:00:20.479Z,7.10
2022-10-11T17:02:48.841Z,7.29
2022-10-11T17:05:17.472Z,7.28
2022-10-11T17:07:47.440Z,7.23
2022-10-11T17:10:15.834Z,7.02
2022-10-11T17:12:47.819Z,7.05
2022-10-11T17:15:18.775Z,7.16
2022-10-11T17:17:47.257Z,6.92
2022-10-11T17:20:15.717Z,7.10
2022-10-11T17:22:44.155Z,7.01
2022-10-11T17:25:14.022Z,7.00
2022-10-11T17:27:42.430Z,6.97
2022-10-11T17:30:12.312Z,6.97
2022-10-11T17:32:41.003Z,6.91
2022-10-11T17:35:09.666Z,7.01
2022-10-11T17:37:38.058Z,6.95
2022-10-11T17:40:07.357Z,6.93
2022-10-11T17:42:37.196Z,6.97
2022-10-11T17:45:06.059Z,6.98
2022-10-11T17:47:34.444Z,6.91
2022-10-11T17:50:02.817Z,6.85
2022-10-11T17:52:32.091Z,6.62
2022-10-11T17:55:00.448Z,6.46
2022-10-11T17:57:28.840Z,6.40
2022-10-11T17:59:58.615Z,6.40
2022-10-11T18:02:27.036Z,6.37
2022-10-11T18:04:55.851Z,6.30
2022-10-11T18:07:24.345Z,6.23
2022-10-11T18:09:52.711Z,6.03
2022-10-11T18:12:21.041Z,6.10
2022-10-11T18:14:51.142Z,6.08
2022-10-11T18:17:21.080Z,6.09
2022-10-11T18:19:49.624Z,5.98
2022-10-11T18:22:18.000Z,5.99
2022-10-11T18:24:46.341Z,5.95
2022-10-11T18:27:14.761Z,5.91
2022-10-11T18:29:43.704Z,5.82
2022-10-11T18:32:12.296Z,5.72
2022-10-11T18:34:42.205Z,5.58
2022-10-11T18:37:10.604Z,5.34
2022-10-11T18:39:39.109Z,5.39
2022-10-11T18:42:07.551Z,5.04
2022-10-11T18:44:35.921Z,5.30
2022-10-11T18:47:04.315Z,5.16
2022-10-11T18:49:32.720Z,5.10
2022-10-11T18:52:02.463Z,5.18
2022-10-11T18:54:30.801Z,5.18
2022-10-11T18:56:59.730Z,5.09
2022-10-11T18:59:28.198Z,5.08
2022-10-11T19:01:56.586Z,4.83
2022-10-11T19:04:24.973Z,4.92
2022-10-11T19:06:54.034Z,4.77
2022-10-11T19:09:26.224Z,4.49
2022-10-11T19:11:56.541Z,4.55
2022-10-11T19:14:26.827Z,4.39
2022-10-11T19:16:56.280Z,4.29
2022-10-11T19:19:27.386Z,4.29
2022-10-11T19:21:55.752Z,4.35
2022-10-11T19:24:27.180Z,4.09
2022-10-11T19:26:59.853Z,4.19
2022-10-11T19:29:31.673Z,4.08
2022-10-11T19:32:01.159Z,3.99
2022-10-11T19:34:31.727Z,3.79
2022-10-11T19:37:01.390Z,3.64
2022-10-11T19:39:31.636Z,3.81
2022-10-11T19:42:00.468Z,3.69
2022-10-11T19:44:28.905Z,3.70
2022-10-11T19:47:01.406Z,3.46
2022-10-11T19:49:33.442Z,3.30
2022-10-11T19:52:02.489Z,3.53
2022-10-11T19:54:33.238Z,3.45
2022-10-11T19:57:01.722Z,3.40
2022-10-11T19:59:30.159Z,3.33
2022-10-11T20:01:58.609Z,3.29
2022-10-11T20:07:22.378Z,3.11
2022-10-11T20:09:52.182Z,3.05
2022-10-11T20:12:20.586Z,2.99
2022-10-11T20:14:49.068Z,2.88
2022-10-11T20:17:17.507Z,2.91
2022-10-11T20:19:46.028Z,2.82
2022-10-11T20:22:14.417Z,2.80
2022-10-11T20:24:42.812Z,2.74
2022-10-11T20:27:12.825Z,2.55
2022-10-11T20:29:41.192Z,2.68
2022-10-11T20:32:09.582Z,2.60
2022-10-11T20:34:39.661Z,2.59
2022-10-11T20:37:08.045Z,2.43
2022-10-11T20:39:36.447Z,2.36
2022-10-11T20:42:05.127Z,2.49
2022-10-11T20:44:34.945Z,2.18
2022-10-11T20:47:04.776Z,2.45
2022-10-11T20:49:33.454Z,2.41
2022-10-11T20:52:01.922Z,2.38
2022-10-11T20:54:30.791Z,1.90
2022-10-11T20:57:00.357Z,2.28
2022-10-11T20:59:28.965Z,2.21
2022-10-11T21:01:58.701Z,2.10
2022-10-11T21:04:27.054Z,2.11
2022-10-11T21:06:55.486Z,2.08
2022-10-11T21:09:24.195Z,2.05
2022-10-11T21:11:53.139Z,2.00
2022-10-11T21:14:21.572Z,1.97
2022-10-11T21:16:49.925Z,1.93
2022-10-11T21:19:19.678Z,1.68
2022-10-11T21:21:53.363Z,1.68
2022-10-11T21:24:22.731Z,1.75
2022-10-11T21:26:51.121Z,1.71
2022-10-11T21:29:19.634Z,1.73
2022-10-11T21:31:47.972Z,1.71
2022-10-11T21:34:16.470Z,1.76
2022-10-11T21:36:46.302Z,1.81
2022-10-11T21:39:14.649Z,1.84
2022-10-11T21:41:43.351Z,1.83
2022-10-11T21:44:11.786Z,1.80
2022-10-11T21:47:06.512Z,1.75
2022-10-11T21:49:31.640Z,1.61
2022-10-11T21:52:01.361Z,1.59
2022-10-11T21:54:29.741Z,1.36
2022-10-11T21:56:58.578Z,1.48
2022-10-11T21:59:27.021Z,1.52
2022-10-11T22:01:59.394Z,1.41
2022-10-11T22:04:29.978Z,1.54
2022-10-11T22:06:58.408Z,1.51
2022-10-11T22:09:29.968Z,1.46
2022-10-11T22:11:58.731Z,1.48
2022-10-11T22:14:27.374Z,1.28
2022-10-11T22:16:55.800Z,1.48
2022-10-11T22:19:24.663Z,1.47
2022-10-11T22:21:53.153Z,1.28
2022-10-11T22:24:21.547Z,1.43
2022-10-11T22:26:53.768Z,1.43
2022-10-11T22:29:22.194Z,1.47
2022-10-11T22:31:50.589Z,1.42
2022-10-11T22:34:19.058Z,1.28
2022-10-11T22:36:47.756Z,1.20
2022-10-11T22:39:16.126Z,1.09
2022-10-11T22:41:44.616Z,1.34
2022-10-11T22:44:15.066Z,1.28
2022-10-11T22:46:43.673Z,1.21
2022-10-11T22:49:12.126Z,0.98
2022-10-11T22:51:40.781Z,1.11
2022-10-11T22:54:09.369Z,0.80
2022-10-11T22:56:38.213Z,1.08
2022-10-11T22:59:06.649Z,1.06
2022-10-11T23:01:36.517Z,1.03
2022-10-11T23:04:05.358Z,0.94
2022-10-11T23:06:33.847Z,0.76
2022-10-11T23:09:02.454Z,0.98
2022-10-11T23:11:30.801Z,0.95
2022-10-11T23:13:59.147Z,0.83
2022-10-11T23:16:27.595Z,0.91
2022-10-11T23:18:57.388Z,0.89
2022-10-11T23:21:25.831Z,0.90
2022-10-11T23:23:54.792Z,0.89
2022-10-11T23:26:23.102Z,0.76
2022-10-11T23:28:54.880Z,0.78
2022-10-11T23:31:23.499Z,0.67
2022-10-11T23:33:54.610Z,0.92
2022-10-11T23:36:25.598Z,0.94
2022-10-11T23:38:55.200Z,0.73
2022-10-11T23:41:23.691Z,0.91
2022-10-11T23:43:52.067Z,0.74
2022-10-11T23:46:20.445Z,0.89
2022-10-11T23:48:48.921Z,0.75
2022-10-11T23:51:17.523Z,0.85
2022-10-11T23:53:47.425Z,0.84
2022-10-11T23:56:15.821Z,0.82
2022-10-11T23:58:44.322Z,0.82
